• Join FlightAware (Why Join?)
  • Login
  • US Flag 
04:53PM EST


 

Airport Tracker/Info


-or-


 

Live Flight TrackerFlight Track Log ✈ GJS6206 ✈ 12-Apr-2013 ✈ KDTW - KSTL

Flight Track Log - Related Links

Times and Time Zones

All times are in EDT time to prevent confusion due to time zone crossing. See the GJS6206 flight status page for this flight to view local times or setup timezone preferences in your user account.

Time Position Orientation Groundspeed Altitude Reporting Facility
EDT Latitude Longitude Course Direction KTS MPH feet Rate Location/Type
08:09PM 42.2072 -83.3519 212° Southwest 143 165 1,300  Level FAA TRACON SMA TRACON (SMA)
08:09PM 42.1950 -83.3622 212° Southwest 150 173 2,100 2,400 Climbing FAA TRACON SMA TRACON (SMA)
08:10PM 42.1811 -83.3725 209° Southwest 172 198 3,000 2,820 Climbing FAA TRACON SMA TRACON (SMA)
08:10PM 42.1644 -83.3839 207° Southwest 194 223 4,100 2,700 Climbing FAA TRACON SMA TRACON (SMA)
08:10PM 42.1492 -83.3944 207° Southwest 214 246 4,700 2,160 Climbing FAA TRACON SMA TRACON (SMA)
08:11PM 42.1322 -83.4064 208° Southwest 226 260 5,500 2,040 Climbing FAA TRACON SMA TRACON (SMA)
08:11PM 42.1122 -83.4228 211° Southwest 242 278 6,100 2,400 Climbing FAA TRACON SMA TRACON (SMA)
08:11PM 42.0919 -83.4406 213° Southwest 252 290 7,100 2,520 Climbing FAA TRACON SMA TRACON (SMA)
08:12PM 42.0756 -83.4542 212° Southwest 258 297 7,800 2,520 Climbing FAA TRACON SMA TRACON (SMA)
08:12PM 42.0536 -83.4731 213° Southwest 261 300 8,800 2,400 Climbing FAA TRACON SMA TRACON (SMA)
08:12PM 42.0308 -83.4928 213° Southwest 270 311 9,400 1,800 Climbing FAA TRACON SMA TRACON (SMA)
08:13PM 42.0131 -83.5078 212° Southwest 276 318 10,000 1,920 Climbing FAA TRACON SMA TRACON (SMA)
08:13PM 41.9886 -83.5294 213° Southwest 282 325 10,700 1,920 Climbing FAA TRACON SMA TRACON (SMA)
08:13PM 41.9639 -83.5511 213° Southwest 291 335 11,300 1,620 Climbing FAA TRACON SMA TRACON (SMA)
08:14PM 41.9431 -83.5689 212° Southwest 299 344 11,800 1,500 Climbing FAA TRACON SMA TRACON (SMA)
08:14PM 41.9172 -83.5911 213° Southwest 305 351 12,300 1,800 Climbing FAA TRACON SMA TRACON (SMA)
08:14PM 41.8956 -83.6097 213° Southwest 304 350 13,000 1,620 Climbing FAA TRACON SMA TRACON (SMA)
08:15PM 41.8733 -83.6286 212° Southwest 305 351 13,400 1,200 Climbing FAA TRACON SMA TRACON (SMA)
08:15PM 41.8503 -83.6486 213° Southwest 315 362 13,800 1,500 Climbing FAA TRACON SMA TRACON (SMA)
08:15PM 41.8197 -83.6744 212° Southwest 335 386 14,400 1,800 Climbing FAA TRACON SMA TRACON (SMA)
08:16PM 41.7947 -83.6956 212° Southwest 344 396 15,000 1,620 Climbing FAA TRACON SMA TRACON (SMA)
08:16PM 41.7697 -83.7181 214° Southwest 351 404 15,500 1,800 Climbing FAA TRACON SMA TRACON (SMA)
08:16PM 41.7378 -83.7458 213° Southwest 353 406 16,200 1,920 Climbing FAA TRACON SMA TRACON (SMA)
08:17PM 41.7119 -83.7678 212° Southwest 356 410 16,800 1,920 Climbing FAA TRACON SMA TRACON (SMA)
08:17PM 41.6786 -83.7942 211° Southwest 359 413 17,500 1,860 Climbing FAA TRACON SMA TRACON (SMA)
08:17PM 41.6539 -83.8125 209° Southwest 358 412 18,000 1,920 Climbing Cleveland Center
08:18PM 41.5642 -83.8831 210° Southwest 369 425 20,000 1,860 Climbing Cleveland Center
08:19PM 41.4767 -83.9533 211° Southwest 369 425 21,800 1,440 Climbing Cleveland Center
08:20PM 41.3869 -84.0236 210° Southwest 369 425 22,900 1,020 Climbing Cleveland Center
08:21PM 41.2994 -84.0936 211° Southwest 374 430 23,900 1,020 Climbing Cleveland Center
08:22PM 41.2397 -84.1678 223° Southwest 405 466 24,800 1,020 Climbing Chicago Center
08:23PM 41.2067 -84.3011 252° West 385 443 25,800 960 Climbing Chicago Center
08:24PM 41.1725 -84.4367 252° West 385 443 26,800 960 Climbing Chicago Center
08:25PM 41.1381 -84.5733 252° West 389 448 27,800 1,020 Climbing Chicago Center
08:26PM 41.0950 -84.7386 251° West 394 453 29,000 1,080 Climbing Chicago Center
08:27PM 41.0594 -84.8753 251° West 392 451 30,100 960 Climbing Chicago Center
08:28PM 41.0250 -85.0106 251° West 388 447 31,000 960 Climbing Chicago Center
08:29PM 40.9894 -85.1456 251° West 388 447 32,100 960 Climbing Chicago Center
08:30PM 40.9553 -85.2778 251° West 382 440 33,100 960 Climbing Chicago Center
08:31PM 40.9206 -85.4083 251° West 378 435 34,100 960 Climbing Chicago Center
08:32PM 40.8861 -85.5358 250° West 371 427 35,100 780 Climbing Chicago Center
08:33PM 40.8456 -85.6875 251° West 366 421 35,800 420 Climbing Chicago Center
08:34PM 40.8103 -85.8181 250° West 376 433 36,000 60 Climbing Chicago Center
08:35PM 40.7744 -85.9539 251° West 389 448 36,000  Level Chicago Center
08:37PM 40.7364 -86.0911 250° West 397 457 36,000  Level Chicago Center
08:38PM 40.6983 -86.2297 250° West 401 461 36,000  Level Chicago Center
08:40PM 40.6217 -86.5083 250° West 403 464 36,000  Level Chicago Center
08:41PM 40.5758 -86.6764 250° West 404 465 36,000 -360 Level Chicago Center
08:42PM 40.5411 -86.8008 250° West 406 467 35,300 -960 Descending Chicago Center
08:43PM 40.4878 -86.9514 245° Southwest 380 437 34,100 -660 Descending Chicago Center
08:44PM 40.4208 -87.0589 231° Southwest 380 437 34,000 -60 Descending Chicago Center
08:45PM 40.3556 -87.1669 232° Southwest 380 437 34,000  Level Chicago Center
08:46PM 40.2886 -87.2761 231° Southwest 382 440 34,000  Level Chicago Center
08:47PM 40.2197 -87.3869 231° Southwest 389 448 34,000 -300 Level Chicago Center
08:48PM 40.1508 -87.5006 232° Southwest 396 456 33,500 -1,020 Descending Chicago Center
08:49PM 40.0794 -87.6136 230° Southwest 403 464 31,900 -1,800 Descending Chicago Center
08:50PM 39.9925 -87.7519 231° Southwest 411 473 29,800 -1,800 Descending Chicago Center
08:51PM 39.9311 -87.8492 231° Southwest 410 472 28,300 -900 Descending Indianapolis Center
08:52PM 39.8467 -87.9847 231° Southwest 405 466 28,000 -180 Descending Indianapolis Center
08:53PM 39.7772 -88.0956 231° Southwest 401 461 28,000 -420 Level Indianapolis Center
08:54PM 39.7078 -88.2056 231° Southwest 398 458 27,200 -960 Descending Indianapolis Center
08:54PM 39.6897 -88.2339 230° Southwest 396 456 26,800 -1,440 Descending Kansas City Center
08:55PM 39.6244 -88.3389 231° Southwest 394 453 25,400 -1,320 Descending Kansas City Center
08:56PM 39.5542 -88.4472 230° Southwest 393 452 24,100 -720 Descending Kansas City Center
08:57PM 39.4883 -88.5628 234° Southwest 395 455 24,000 -60 Descending Kansas City Center
08:58PM 39.4306 -88.6875 239° Southwest 390 449 24,000 -840 Level Kansas City Center
08:59PM 39.3725 -88.8111 239° Southwest 383 441 22,300 -1,980 Descending Kansas City Center
09:00PM 39.3186 -88.9217 238° Southwest 369 425 20,000 -2,280 Descending Kansas City Center
09:02PM 39.2647 -89.0342 238° Southwest 369 425 17,700 -2,220 Descending Kansas City Center
09:03PM 39.2125 -89.1453 239° Southwest 366 421 15,400 -2,400 Descending Kansas City Center
09:04PM 39.1497 -89.2731 238° Southwest 343 395 12,800 -2,340 Descending Kansas City Center
09:04PM 39.1197 -89.2844 196° South 305 351 11,400 -1,800 Descending FAA TRACON SMA TRACON (SMA)
09:05PM 39.1058 -89.3106 236° Southwest 292 336 11,000 -1,200 Descending FAA TRACON SMA TRACON (SMA)
09:05PM 39.0906 -89.3422 238° Southwest 274 315 10,600 -900 Descending FAA TRACON SMA TRACON (SMA)
09:05PM 39.0792 -89.3672 240° Southwest 264 304 10,400 -900 Descending FAA TRACON SMA TRACON (SMA)
09:06PM 39.0647 -89.3892 230° Southwest 261 300 10,000 -1,080 Descending FAA TRACON SMA TRACON (SMA)
09:06PM 39.0519 -89.4197 242° Southwest 256 295 9,700 -1,080 Descending FAA TRACON SMA TRACON (SMA)
09:06PM 39.0414 -89.4436 240° Southwest 250 288 9,300 -1,080 Descending FAA TRACON SMA TRACON (SMA)
09:07PM 39.0292 -89.4661 235° Southwest 248 285 9,000 -480 Descending FAA TRACON SMA TRACON (SMA)
09:07PM 39.0150 -89.4947 237° Southwest 247 284 9,000  Level FAA TRACON SMA TRACON (SMA)
09:07PM 39.0031 -89.5175 236° Southwest 247 284 9,000  Level FAA TRACON SMA TRACON (SMA)
09:08PM 38.9897 -89.5389 231° Southwest 248 285 9,000  Level FAA TRACON SMA TRACON (SMA)
09:08PM 38.9722 -89.5647 229° Southwest 250 288 9,000  Level FAA TRACON SMA TRACON (SMA)
09:08PM 38.9564 -89.5839 223° Southwest 253 291 9,000  Level FAA TRACON SMA TRACON (SMA)
09:09PM 38.9408 -89.6036 225° Southwest 252 290 9,000 -660 Level FAA TRACON SMA TRACON (SMA)
09:09PM 38.9258 -89.6317 236° Southwest 250 288 8,600 -1,080 Descending FAA TRACON SMA TRACON (SMA)
09:09PM 38.9136 -89.6539 235° Southwest 250 288 8,300 -900 Descending FAA TRACON SMA TRACON (SMA)
09:10PM 38.9006 -89.6758 233° Southwest 248 285 8,000 -1,080 Descending FAA TRACON SMA TRACON (SMA)
09:10PM 38.8864 -89.7033 237° Southwest 242 278 7,600 -1,080 Descending FAA TRACON SMA TRACON (SMA)
09:10PM 38.8744 -89.7247 234° Southwest 240 276 7,300 -900 Descending FAA TRACON SMA TRACON (SMA)
09:11PM 38.8625 -89.7458 234° Southwest 239 275 7,000 -480 Descending FAA TRACON SMA TRACON (SMA)
09:11PM 38.8481 -89.7736 236° Southwest 241 277 7,000  Level FAA TRACON SMA TRACON (SMA)
09:11PM 38.8358 -89.7958 235° Southwest 244 281 7,000  Level FAA TRACON SMA TRACON (SMA)
09:12PM 38.8236 -89.8175 234° Southwest 245 282 7,000  Level FAA TRACON SMA TRACON (SMA)
09:12PM 38.8083 -89.8447 234° Southwest 245 282 7,000  Level FAA TRACON SMA TRACON (SMA)
09:12PM 38.7969 -89.8669 237° Southwest 245 282 7,000 -480 Level FAA TRACON SMA TRACON (SMA)
09:13PM 38.7850 -89.8883 234° Southwest 241 277 6,700 -1,500 Descending FAA TRACON SMA TRACON (SMA)
09:13PM 38.7706 -89.9153 235° Southwest 239 275 6,000 -1,980 Descending FAA TRACON SMA TRACON (SMA)
09:13PM 38.7586 -89.9375 235° Southwest 243 280 5,400 -1,320 Descending FAA TRACON SMA TRACON (SMA)
09:14PM 38.7467 -89.9600 236° Southwest 246 283 5,100 -900 Descending FAA TRACON SMA TRACON (SMA)
09:14PM 38.7322 -89.9869 236° Southwest 244 281 4,800 -960 Descending FAA TRACON SMA TRACON (SMA)
09:14PM 38.7206 -90.0081 235° Southwest 240 276 4,500 -1,080 Descending FAA TRACON SMA TRACON (SMA)
09:15PM 38.7094 -90.0292 236° Southwest 236 272 4,100 -1,080 Descending FAA TRACON SMA TRACON (SMA)
09:15PM 38.6956 -90.0547 235° Southwest 229 264 3,800 -900 Descending FAA TRACON SMA TRACON (SMA)
09:15PM 38.6844 -90.0747 235° Southwest 225 259 3,500 -480 Descending FAA TRACON SMA TRACON (SMA)
09:16PM 38.6750 -90.0922 235° Southwest 204 235 3,500  Level FAA TRACON SMA TRACON (SMA)
09:16PM 38.6636 -90.1119 234° Southwest 181 208 3,500  Level FAA TRACON SMA TRACON (SMA)
09:16PM 38.6603 -90.1278 255° West 164 189 3,500 -180 Level FAA TRACON SMA TRACON (SMA)
09:17PM 38.6653 -90.1419 294° West 150 173 3,400 -780 Descending FAA TRACON SMA TRACON (SMA)
09:17PM 38.6719 -90.1606 295° West 149 171 3,000 -1,080 Descending FAA TRACON SMA TRACON (SMA)
09:17PM 38.6786 -90.1742 302° West 148 170 2,700 -900 Descending FAA TRACON SMA TRACON (SMA)
09:18PM 38.6864 -90.1881 306° West 151 174 2,400 -960 Descending FAA TRACON SMA TRACON (SMA)
09:18PM 38.6947 -90.2047 303° West 148 170 2,100 -780 Descending FAA TRACON SMA TRACON (SMA)
09:18PM 38.7006 -90.2167 302° West 134 154 1,900 -600 Descending FAA TRACON SMA TRACON (SMA)
09:19PM 38.7064 -90.2281 303° West 127 146 1,700 -780 Descending FAA TRACON SMA TRACON (SMA)
09:19PM 38.7136 -90.2428 302° West 125 144 1,400 -780 Descending FAA TRACON SMA TRACON (SMA)
09:19PM 38.7192 -90.2550 300° West 127 146 1,200 -600 Descending FAA TRACON SMA TRACON (SMA)
09:20PM 38.7253 -90.2672 303° West 131 151 1,000 -780 Descending FAA TRACON SMA TRACON (SMA)
09:20PM 38.7325 -90.2819 302° West 128 147 700 -600 Descending FAA TRACON SMA TRACON (SMA)
09:20PM 38.7383 -90.2844 342° North 140 161 600 -300 Descending FAA TRACON SMA TRACON (SMA)